createdAt,value
2023-04-23T00:00:54.772Z,73.93
2023-04-23T00:04:02.371Z,74.74
2023-04-23T00:07:09.519Z,75.34
2023-04-23T00:10:18.935Z,75.65
2023-04-23T00:13:26.297Z,76.19
2023-04-23T00:16:33.829Z,76.50
2023-04-23T00:19:43.129Z,77.10
2023-04-23T00:22:50.675Z,77.61
2023-04-23T00:25:58.136Z,77.81
2023-04-23T00:29:07.001Z,78.45
2023-04-23T00:32:15.052Z,79.06
2023-04-23T00:35:22.308Z,79.36
2023-04-23T00:38:30.462Z,79.57
2023-04-23T00:41:38.908Z,79.87
2023-04-23T00:44:46.941Z,79.97
2023-04-23T00:47:54.241Z,80.38
2023-04-23T00:51:03.218Z,80.27
2023-04-23T00:54:10.675Z,80.27
2023-04-23T00:57:18.017Z,80.18
2023-04-23T01:00:26.846Z,80.18
2023-04-23T01:03:34.643Z,80.47
2023-04-23T01:06:41.730Z,80.58
2023-04-23T01:09:51.371Z,80.38
2023-04-23T01:12:58.805Z,80.58
2023-04-23T01:16:06.307Z,80.68
2023-04-23T01:19:13.674Z,80.78
2023-04-23T01:22:22.884Z,80.78
2023-04-23T01:25:30.690Z,80.78
2023-04-23T01:28:38.553Z,80.68
2023-04-23T01:31:47.068Z,80.98
2023-04-23T01:34:54.926Z,80.98
2023-04-23T01:38:02.404Z,81.18
2023-04-23T01:41:11.333Z,81.49
2023-04-23T01:44:18.798Z,81.49
2023-04-23T01:47:26.403Z,81.29
2023-04-23T01:50:35.343Z,81.29
2023-04-23T01:53:43.310Z,81.09
2023-04-23T01:56:50.369Z,80.98
2023-04-23T01:59:58.218Z,81.09
2023-04-23T02:03:06.724Z,80.98
2023-04-23T02:06:14.686Z,80.47
2023-04-23T02:09:22.033Z,80.31
2023-04-23T02:12:30.966Z,80.62
2023-04-23T02:15:38.521Z,80.52
2023-04-23T02:18:46.501Z,83.76
2023-04-23T02:21:55.056Z,84.47
2023-04-23T02:25:02.796Z,85.01
2023-04-23T02:28:09.765Z,85.11
2023-04-23T02:31:19.258Z,86.68
2023-04-23T02:34:26.718Z,88.03
2023-04-23T02:37:33.936Z,89.45
2023-04-23T02:40:41.331Z,90.61
2023-04-23T02:43:50.628Z,91.22
2023-04-23T02:46:58.273Z,92.33
2023-04-23T02:50:05.923Z,93.19
2023-04-23T02:53:14.759Z,94.31
2023-04-23T02:56:22.306Z,94.71
2023-04-23T02:59:30.449Z,95.02
2023-04-23T03:02:38.825Z,95.17
2023-04-23T03:05:46.818Z,95.26
2023-04-23T03:08:54.267Z,95.87
2023-04-23T03:12:03.173Z,95.98
2023-04-23T03:15:10.658Z,96.02
2023-04-23T03:18:18.206Z,96.12
2023-04-23T03:21:26.984Z,96.12
2023-04-23T03:24:34.743Z,96.12
2023-04-23T03:27:41.735Z,96.07
2023-04-23T03:30:49.724Z,96.47
2023-04-23T03:33:58.704Z,96.88
2023-04-23T03:37:06.097Z,96.88
2023-04-23T03:40:13.450Z,97.19
2023-04-23T03:43:22.412Z,97.44
2023-04-23T03:46:29.903Z,97.94
2023-04-23T03:49:37.689Z,98.25
2023-04-23T03:52:46.205Z,98.35
2023-04-23T03:55:53.786Z,98.60
2023-04-23T03:59:01.422Z,98.70
2023-04-23T04:02:10.349Z,99.01
2023-04-23T04:05:18.091Z,99.31
2023-04-23T04:08:25.562Z,99.62
2023-04-23T04:11:32.993Z,99.82
2023-04-23T04:14:42.619Z,99.92
2023-04-23T04:17:50.358Z,99.99
2023-04-23T04:20:57.905Z,99.97
2023-04-23T04:24:07.150Z,99.99
2023-04-23T04:27:14.102Z,99.99
2023-04-23T04:30:22.118Z,99.99
2023-04-23T04:33:30.652Z,99.99
2023-04-23T04:36:38.487Z,99.99
2023-04-23T04:39:45.920Z,99.99
2023-04-23T04:42:54.675Z,99.99
2023-04-23T04:46:02.202Z,99.99
2023-04-23T04:49:10.300Z,99.99
2023-04-23T04:52:17.394Z,99.99
2023-04-23T04:55:27.145Z,99.99
2023-04-23T04:58:34.175Z,99.99
2023-04-23T05:01:42.064Z,99.99
2023-04-23T05:04:51.477Z,99.99
2023-04-23T05:07:59.125Z,99.99
2023-04-23T05:11:06.488Z,99.99
2023-04-23T05:14:15.780Z,99.99
2023-04-23T05:17:23.051Z,99.99
2023-04-23T05:20:30.913Z,99.99
2023-04-23T05:23:39.542Z,99.99
2023-04-23T05:26:47.631Z,99.99
2023-04-23T05:29:55.118Z,99.99
2023-04-23T05:33:02.930Z,99.99
2023-04-23T05:36:11.544Z,99.99
2023-04-23T05:39:19.600Z,99.99
2023-04-23T05:42:26.659Z,99.99
2023-04-23T05:45:36.084Z,99.99
2023-04-23T05:48:43.172Z,99.99
2023-04-23T05:51:51.210Z,99.99
2023-04-23T05:55:00.225Z,99.99
2023-04-23T05:58:07.837Z,99.99
2023-04-23T06:01:15.456Z,99.99
2023-04-23T06:04:25.101Z,99.96
2023-04-23T06:07:32.302Z,99.96
2023-04-23T06:10:40.370Z,99.99
2023-04-23T06:13:48.823Z,99.86
2023-04-23T06:16:56.726Z,99.99
2023-04-23T06:20:04.500Z,99.99
2023-04-23T06:23:12.908Z,99.99
2023-04-23T06:26:21.537Z,99.81
2023-04-23T06:29:29.682Z,99.56
2023-04-23T06:32:36.919Z,99.51
2023-04-23T06:35:46.194Z,99.56
2023-04-23T06:38:53.232Z,99.41
2023-04-23T06:42:01.171Z,99.51
2023-04-23T06:45:10.092Z,99.91
2023-04-23T06:48:19.431Z,99.91
2023-04-23T06:51:27.010Z,99.61
2023-04-23T06:54:36.368Z,99.99
2023-04-23T06:57:43.707Z,99.77
2023-04-23T07:00:51.353Z,99.77
2023-04-23T07:03:58.899Z,99.87
2023-04-23T07:07:08.768Z,99.77
2023-04-23T07:10:18.018Z,99.66
2023-04-23T07:13:25.529Z,99.66
2023-04-23T07:16:34.755Z,99.46
2023-04-23T07:19:41.958Z,99.16
2023-04-23T07:22:49.311Z,98.91
2023-04-23T07:25:58.324Z,98.39
2023-04-23T07:29:05.700Z,97.99
2023-04-23T07:32:14.333Z,98.35
2023-04-23T07:35:22.945Z,97.44
2023-04-23T07:38:30.540Z,97.60
2023-04-23T07:41:38.071Z,97.39
2023-04-23T07:44:46.074Z,96.23
2023-04-23T07:47:54.626Z,95.86
2023-04-23T07:51:02.653Z,95.25
2023-04-23T07:54:10.829Z,95.36
2023-04-23T07:57:19.438Z,96.64
2023-04-23T08:00:27.360Z,95.89
2023-04-23T08:03:35.204Z,95.94
2023-04-23T08:06:43.827Z,94.98
2023-04-23T08:09:51.195Z,91.28
2023-04-23T08:12:58.960Z,90.86
2023-04-23T08:16:07.611Z,91.77
2023-04-23T08:19:15.498Z,89.78
2023-04-23T08:22:23.058Z,93.49
2023-04-23T08:25:32.127Z,92.72
2023-04-23T08:28:39.861Z,91.71
2023-04-23T08:31:47.454Z,87.85
2023-04-23T08:34:55.267Z,90.41
2023-04-23T08:38:04.415Z,87.92
2023-04-23T08:41:12.237Z,88.01
2023-04-23T08:44:20.004Z,84.80
2023-04-23T08:47:28.693Z,88.52
2023-04-23T08:50:36.853Z,88.21
2023-04-23T08:53:44.832Z,85.68
2023-04-23T08:56:53.504Z,90.55
2023-04-23T09:00:01.597Z,86.86
2023-04-23T09:03:09.477Z,89.04
2023-04-23T09:06:18.559Z,87.79
2023-04-23T09:09:26.603Z,88.82
2023-04-23T09:12:34.533Z,89.48
2023-04-23T09:15:41.894Z,87.99
2023-04-23T09:18:50.958Z,81.55
2023-04-23T09:21:58.426Z,81.29
2023-04-23T09:25:05.863Z,80.47
2023-04-23T09:28:15.000Z,79.77
2023-04-23T09:31:22.306Z,77.84
2023-04-23T09:34:29.712Z,76.67
2023-04-23T09:37:29.421Z,78.63
2023-04-23T09:40:36.686Z,76.56
2023-04-23T09:43:44.029Z,77.78
2023-04-23T09:46:52.900Z,80.94
2023-04-23T09:50:00.478Z,76.66
2023-04-23T09:53:07.822Z,80.63
2023-04-23T09:56:15.316Z,78.37
2023-04-23T09:59:39.483Z,74.66
2023-04-23T10:02:29.070Z,77.56
2023-04-23T10:05:45.402Z,72.61
2023-04-23T10:08:43.120Z,70.66
2023-04-23T10:11:51.039Z,69.89
2023-04-23T10:14:58.864Z,70.32
2023-04-23T10:18:07.808Z,71.00
2023-04-23T10:21:15.134Z,67.77
2023-04-23T10:24:23.029Z,65.75
2023-04-23T10:27:48.441Z,67.80
2023-04-23T10:30:36.386Z,68.61
2023-04-23T10:33:56.028Z,68.88
2023-04-23T10:36:49.003Z,70.19
2023-04-23T10:39:58.083Z,69.82
2023-04-23T10:43:05.584Z,70.19
2023-04-23T10:46:13.264Z,70.06
2023-04-23T10:49:22.021Z,73.75
2023-04-23T10:52:29.358Z,71.80
2023-04-23T10:55:37.122Z,65.06
2023-04-23T10:58:45.574Z,63.35
2023-04-23T11:01:53.432Z,65.16
2023-04-23T11:05:01.375Z,68.38
2023-04-23T11:08:19.429Z,62.82
2023-04-23T11:11:15.716Z,61.69
2023-04-23T11:14:23.324Z,62.72
2023-04-23T11:17:31.129Z,61.71
2023-04-23T11:20:32.317Z,59.41
2023-04-23T11:23:42.345Z,61.04
2023-04-23T11:26:50.196Z,62.45
2023-04-23T11:30:00.058Z,64.03
2023-04-23T11:33:08.151Z,65.10
2023-04-23T11:36:16.170Z,63.59
2023-04-23T11:39:24.583Z,62.79
2023-04-23T11:42:32.287Z,61.08
2023-04-23T11:45:40.152Z,58.37
2023-04-23T11:48:48.648Z,60.98
2023-04-23T11:51:56.152Z,61.72
2023-04-23T11:55:03.589Z,57.28
2023-04-23T11:58:12.667Z,59.79
2023-04-23T12:01:20.686Z,57.14
2023-04-23T12:04:28.559Z,60.58
2023-04-23T12:07:36.192Z,59.67
2023-04-23T12:10:46.021Z,61.01
2023-04-23T12:13:53.246Z,57.62
2023-04-23T12:17:00.732Z,59.96
2023-04-23T12:20:09.511Z,59.26
2023-04-23T12:23:17.353Z,59.89
2023-04-23T12:26:24.762Z,57.78
2023-04-23T12:29:33.628Z,60.02
2023-04-23T12:32:41.178Z,62.30
2023-04-23T12:35:48.549Z,63.99
2023-04-23T12:38:57.265Z,60.44
2023-04-23T12:42:05.182Z,58.77
2023-04-23T12:45:13.232Z,56.61
2023-04-23T12:48:20.539Z,56.34
2023-04-23T12:51:29.495Z,57.54
2023-04-23T12:54:36.508Z,55.66
2023-04-23T12:57:44.265Z,58.97
2023-04-23T13:00:53.243Z,58.27
2023-04-23T13:04:00.382Z,55.79
2023-04-23T13:07:08.129Z,59.83
2023-04-23T13:10:17.048Z,58.33
2023-04-23T13:13:24.183Z,57.24
2023-04-23T13:16:31.960Z,58.86
2023-04-23T13:19:40.745Z,58.07
2023-04-23T13:22:48.098Z,61.46
2023-04-23T13:25:55.873Z,63.49
2023-04-23T13:29:03.450Z,66.96
2023-04-23T13:32:13.366Z,71.57
2023-04-23T13:35:20.688Z,76.15
2023-04-23T13:38:28.120Z,79.67
2023-04-23T13:41:37.175Z,83.86
2023-04-23T13:44:44.810Z,84.85
2023-04-23T13:47:52.431Z,88.95
2023-04-23T13:51:01.818Z,91.17
2023-04-23T13:54:08.868Z,90.47
2023-04-23T13:57:17.337Z,93.32
2023-04-23T14:00:26.799Z,91.11
2023-04-23T14:03:34.010Z,88.39
2023-04-23T14:06:41.981Z,88.71
2023-04-23T14:09:51.433Z,88.53
2023-04-23T14:12:58.560Z,85.25
2023-04-23T14:16:06.332Z,80.58
2023-04-23T14:19:13.788Z,76.27
2023-04-23T14:22:22.469Z,69.01
2023-04-23T14:25:30.413Z,73.05
2023-04-23T14:28:37.592Z,74.42
2023-04-23T14:31:46.758Z,76.03
2023-04-23T14:34:54.759Z,69.85
2023-04-23T14:38:01.843Z,62.84
2023-04-23T14:41:10.775Z,69.49
2023-04-23T14:44:18.328Z,72.77
2023-04-23T14:47:25.840Z,64.72
2023-04-23T14:50:34.900Z,69.56
2023-04-23T14:53:42.499Z,62.51
2023-04-23T14:56:50.597Z,66.43
2023-04-23T14:59:58.062Z,65.33
2023-04-23T15:03:07.115Z,64.55
2023-04-23T15:06:15.054Z,64.38
2023-04-23T15:09:22.740Z,69.12
2023-04-23T15:12:31.611Z,65.92
2023-04-23T15:15:44.448Z,69.35
2023-04-23T15:18:41.329Z,67.33
2023-04-23T15:21:50.452Z,71.10
2023-04-23T15:24:58.083Z,70.79
2023-04-23T15:28:05.202Z,68.71
2023-04-23T15:31:14.829Z,71.87
2023-04-23T15:34:22.219Z,72.78
2023-04-23T15:37:29.195Z,72.71
2023-04-23T15:40:37.024Z,70.69
2023-04-23T15:43:45.880Z,67.97
2023-04-23T15:46:53.217Z,69.08
2023-04-23T15:50:01.066Z,68.98
2023-04-23T15:53:09.746Z,69.38
2023-04-23T15:56:17.223Z,75.40
2023-04-23T15:59:25.017Z,68.51
2023-04-23T16:02:34.102Z,64.24
2023-04-23T16:05:41.732Z,61.59
2023-04-23T16:08:49.572Z,66.09
2023-04-23T16:11:58.653Z,62.66
2023-04-23T16:15:06.110Z,61.89
2023-04-23T16:18:13.353Z,63.43
2023-04-23T16:21:21.485Z,66.96
2023-04-23T16:24:30.265Z,69.18
2023-04-23T16:27:37.471Z,68.48
2023-04-23T16:30:45.857Z,67.16
2023-04-23T16:33:55.754Z,68.27
2023-04-23T16:37:03.171Z,67.40
2023-04-23T16:40:11.637Z,68.71
2023-04-23T16:43:20.573Z,69.85
2023-04-23T16:46:28.312Z,70.66
2023-04-23T16:49:36.252Z,70.59
2023-04-23T16:52:45.671Z,70.62
2023-04-23T16:55:53.507Z,70.73
2023-04-23T16:59:01.526Z,71.17
2023-04-23T17:02:09.343Z,73.79
2023-04-23T17:05:18.496Z,74.70
2023-04-23T17:08:26.237Z,74.54
2023-04-23T17:11:34.391Z,73.52
2023-04-23T17:14:43.731Z,74.74
2023-04-23T17:17:51.130Z,77.20
2023-04-23T17:20:58.615Z,77.50
2023-04-23T17:24:08.132Z,77.44
2023-04-23T17:27:15.420Z,80.01
2023-04-23T17:30:23.671Z,80.72
2023-04-23T17:33:32.429Z,80.82
2023-04-23T17:36:39.836Z,80.41
2023-04-23T17:39:47.410Z,80.65
2023-04-23T17:42:55.940Z,82.07
2023-04-23T17:46:03.796Z,83.03
2023-04-23T17:49:11.265Z,82.92
2023-04-23T17:52:18.493Z,82.62
2023-04-23T17:55:27.244Z,82.35
2023-04-23T17:58:36.036Z,83.06
2023-04-23T18:01:45.071Z,83.40
2023-04-23T18:04:54.145Z,84.32
2023-04-23T18:08:01.492Z,84.32
2023-04-23T18:11:09.570Z,85.53
2023-04-23T18:14:18.600Z,85.24
2023-04-23T18:17:26.452Z,84.46
2023-04-23T18:20:34.530Z,84.56
2023-04-23T18:23:43.638Z,84.40
2023-04-23T18:26:51.061Z,85.52
2023-04-23T18:29:59.292Z,85.46
2023-04-23T18:33:06.849Z,85.86
2023-04-23T18:36:15.639Z,85.96
2023-04-23T18:39:23.595Z,87.02
2023-04-23T18:42:31.240Z,86.21
2023-04-23T18:45:40.044Z,85.53
2023-04-23T18:48:48.066Z,87.06
2023-04-23T18:51:55.727Z,87.26
2023-04-23T18:55:04.836Z,87.77
2023-04-23T18:58:12.908Z,88.28
2023-04-23T19:01:20.802Z,88.39
2023-04-23T19:04:30.380Z,87.92
2023-04-23T19:07:38.013Z,88.93
2023-04-23T19:10:46.223Z,89.34
2023-04-23T19:13:53.881Z,89.85
2023-04-23T19:17:02.916Z,89.85
2023-04-23T19:20:10.663Z,89.44
2023-04-23T19:23:18.202Z,89.95
2023-04-23T19:26:27.272Z,88.63
2023-04-23T19:29:35.265Z,87.51
2023-04-23T19:32:43.148Z,87.10
2023-04-23T19:35:52.141Z,86.76
2023-04-23T19:39:00.221Z,85.74
2023-04-23T19:42:07.978Z,85.13
2023-04-23T19:45:16.914Z,84.92
2023-04-23T19:48:24.768Z,84.42
2023-04-23T19:51:31.787Z,84.01
2023-04-23T19:54:39.131Z,83.29
2023-04-23T19:57:48.264Z,83.06
2023-04-23T20:00:55.654Z,82.34
2023-04-23T20:04:03.014Z,81.93
2023-04-23T20:07:11.798Z,81.23
2023-04-23T20:10:18.893Z,81.70
2023-04-23T20:13:26.321Z,81.39
2023-04-23T20:16:35.184Z,80.68
2023-04-23T20:19:44.186Z,80.88
2023-04-23T20:22:52.262Z,80.68
2023-04-23T20:26:02.309Z,79.97
2023-04-23T20:29:10.012Z,80.17
2023-04-23T20:32:17.724Z,79.97
2023-04-23T20:35:27.240Z,80.07
2023-04-23T20:38:34.740Z,80.11
2023-04-23T20:41:42.042Z,80.31
2023-04-23T20:44:49.954Z,79.80
2023-04-23T20:47:59.917Z,80.00
2023-04-23T20:51:07.256Z,80.31
2023-04-23T20:54:14.964Z,80.11
2023-04-23T20:57:24.540Z,80.21
2023-04-23T21:00:31.568Z,80.21
2023-04-23T21:03:39.618Z,80.92
2023-04-23T21:06:48.385Z,80.82
2023-04-23T21:09:55.839Z,81.02
2023-04-23T21:13:03.587Z,81.23
2023-04-23T21:16:12.494Z,81.23
2023-04-23T21:19:19.962Z,80.82
2023-04-23T21:22:27.826Z,81.02
2023-04-23T21:25:35.238Z,80.82
2023-04-23T21:28:44.061Z,80.72
2023-04-23T21:31:51.520Z,80.31
2023-04-23T21:34:59.337Z,80.92
2023-04-23T21:38:08.126Z,80.76
2023-04-23T21:41:15.570Z,81.16
2023-04-23T21:44:23.372Z,81.16
2023-04-23T21:47:32.270Z,80.65
2023-04-23T21:50:39.602Z,81.16
2023-04-23T21:53:47.719Z,81.26
2023-04-23T21:56:56.759Z,81.46
2023-04-23T22:00:04.310Z,81.98
2023-04-23T22:03:15.460Z,82.79
2023-04-23T22:06:16.513Z,83.70
2023-04-23T22:09:25.799Z,82.32
2023-04-23T22:12:33.545Z,82.21
2023-04-23T22:15:40.790Z,82.07
2023-04-23T22:18:50.203Z,81.67
2023-04-23T22:21:58.166Z,80.45
2023-04-23T22:25:05.223Z,80.62
2023-04-23T22:28:14.472Z,80.51
2023-04-23T22:31:21.951Z,81.63
2023-04-23T22:34:29.497Z,83.06
2023-04-23T22:37:38.873Z,85.19
2023-04-23T22:40:46.443Z,85.80
2023-04-23T22:43:54.338Z,86.45
2023-04-23T22:47:01.902Z,87.16
2023-04-23T22:50:10.688Z,88.39
2023-04-23T22:53:18.613Z,88.39
2023-04-23T22:56:25.955Z,88.42
2023-04-23T22:59:34.751Z,88.83
2023-04-23T23:02:42.866Z,89.34
2023-04-23T23:05:49.847Z,89.75
2023-04-23T23:08:59.224Z,89.24
2023-04-23T23:12:06.955Z,88.93
2023-04-23T23:15:14.005Z,88.32
2023-04-23T23:18:23.345Z,86.90
2023-04-23T23:21:30.974Z,87.41
2023-04-23T23:24:38.041Z,86.49
2023-04-23T23:27:47.284Z,86.39
2023-04-23T23:30:54.848Z,85.27
2023-04-23T23:34:02.013Z,84.92
2023-04-23T23:37:09.953Z,84.76
2023-04-23T23:40:18.802Z,85.78
2023-04-23T23:43:26.232Z,84.66
2023-04-23T23:46:34.030Z,84.97
2023-04-23T23:49:42.732Z,85.17
2023-04-23T23:52:50.862Z,85.21
2023-04-23T23:55:58.704Z,85.00
2023-04-23T23:59:07.108Z,85.51
